createdAt,value
2023-02-11T00:00:58.643Z,36.00
2023-02-11T00:03:26.281Z,31.88
2023-02-11T00:05:58.898Z,36.03
2023-02-11T00:08:26.678Z,38.10
2023-02-11T00:10:57.513Z,30.02
2023-02-11T00:13:25.134Z,32.75
2023-02-11T00:15:52.510Z,34.88
2023-02-11T00:18:19.743Z,33.30
2023-02-11T00:20:47.130Z,32.40
2023-02-11T00:23:15.009Z,33.03
2023-02-11T00:25:43.919Z,30.75
2023-02-11T00:28:12.095Z,29.63
2023-02-11T00:30:39.651Z,34.03
2023-02-11T00:33:07.484Z,29.48
2023-02-11T00:35:37.937Z,32.85
2023-02-11T00:38:05.319Z,29.48
2023-02-11T00:40:32.919Z,34.05
2023-02-11T00:43:00.622Z,30.50
2023-02-11T00:45:28.912Z,29.23
2023-02-11T00:47:56.841Z,30.00
2023-02-11T00:50:24.755Z,32.00
2023-02-11T00:52:52.324Z,32.47
2023-02-11T00:55:19.917Z,31.83
2023-02-11T00:57:47.146Z,29.52
2023-02-11T01:00:15.341Z,29.90
2023-02-11T01:02:42.763Z,26.95
2023-02-11T01:05:10.091Z,29.50
2023-02-11T01:07:37.621Z,31.13
2023-02-11T01:10:05.144Z,32.92
2023-02-11T01:12:35.947Z,32.38
2023-02-11T01:15:04.803Z,34.45
2023-02-11T01:17:32.327Z,33.60
2023-02-11T01:19:59.932Z,31.00
2023-02-11T01:22:27.348Z,30.70
2023-02-11T01:24:54.933Z,33.60
2023-02-11T01:27:22.176Z,29.45
2023-02-11T01:29:49.668Z,34.85
2023-02-11T01:32:17.092Z,28.97
2023-02-11T01:34:44.787Z,31.10
2023-02-11T01:37:12.341Z,32.10
2023-02-11T01:39:39.941Z,33.03
2023-02-11T01:42:07.676Z,32.60
2023-02-11T01:44:37.946Z,33.83
2023-02-11T01:47:06.576Z,33.53
2023-02-11T01:49:36.844Z,30.65
2023-02-11T01:52:11.679Z,27.23
2023-02-11T01:55:03.949Z,34.60
2023-02-11T01:57:33.190Z,26.23
2023-02-11T02:00:18.372Z,27.20
2023-02-11T02:03:08.684Z,29.20
2023-02-11T02:05:38.878Z,32.03
2023-02-11T02:08:34.494Z,27.88
2023-02-11T02:11:01.819Z,26.27
2023-02-11T02:13:31.806Z,27.98
2023-02-11T02:16:09.646Z,28.65
2023-02-11T02:18:46.323Z,26.60
2023-02-11T02:21:25.668Z,30.17
2023-02-11T02:23:53.060Z,33.03
2023-02-11T02:26:36.962Z,30.42
2023-02-11T02:29:19.478Z,33.40
2023-02-11T02:32:11.053Z,31.65
2023-02-11T02:35:03.691Z,27.50
2023-02-11T02:37:46.382Z,26.07
2023-02-11T02:40:20.775Z,30.58
2023-02-11T02:42:48.698Z,35.05
2023-02-11T02:45:16.386Z,28.70
2023-02-11T02:47:44.077Z,27.65
2023-02-11T02:50:12.355Z,36.60
2023-02-11T02:53:04.351Z,30.65
2023-02-11T02:55:31.583Z,30.67
2023-02-11T02:58:08.798Z,30.25
2023-02-11T03:00:54.310Z,26.45
2023-02-11T03:03:44.328Z,25.23
2023-02-11T03:06:15.793Z,31.70
2023-02-11T03:08:59.987Z,28.52
2023-02-11T03:11:29.529Z,28.33
2023-02-11T03:13:57.224Z,30.95
2023-02-11T03:16:27.649Z,28.13
2023-02-11T03:19:05.413Z,27.20
2023-02-11T03:21:34.199Z,27.60
2023-02-11T03:24:06.348Z,25.48
2023-02-11T03:26:39.808Z,27.33
2023-02-11T03:29:16.232Z,32.77
2023-02-11T03:31:52.759Z,24.95
2023-02-11T03:34:30.104Z,26.75
2023-02-11T03:37:08.646Z,27.25
2023-02-11T03:39:39.715Z,29.02
2023-02-11T03:42:08.108Z,28.90
2023-02-11T03:44:41.112Z,31.02
2023-02-11T03:47:09.821Z,28.48
2023-02-11T03:49:38.948Z,24.75
2023-02-11T03:52:08.001Z,29.25
2023-02-11T03:54:35.831Z,27.43
2023-02-11T03:57:03.121Z,26.23
2023-02-11T03:59:30.721Z,29.92
2023-02-11T04:01:59.719Z,23.88
2023-02-11T04:04:26.961Z,30.80
2023-02-11T04:06:54.568Z,27.70
2023-02-11T04:09:21.960Z,28.95
2023-02-11T04:11:49.443Z,27.77
2023-02-11T04:14:16.840Z,29.95
2023-02-11T04:16:44.369Z,27.25
2023-02-11T04:19:11.728Z,28.47
2023-02-11T04:21:39.140Z,26.35
2023-02-11T04:24:06.845Z,25.95
2023-02-11T04:26:34.264Z,24.65
2023-02-11T04:29:01.732Z,28.30
2023-02-11T04:31:29.124Z,29.37
2023-02-11T04:33:57.271Z,27.75
2023-02-11T04:36:24.854Z,24.70
2023-02-11T04:38:52.456Z,28.92
2023-02-11T04:41:20.160Z,30.50
2023-02-11T04:43:47.737Z,24.97
2023-02-11T04:46:15.298Z,28.00
2023-02-11T04:48:42.743Z,27.42
2023-02-11T04:51:10.466Z,25.48
2023-02-11T04:53:38.174Z,22.63
2023-02-11T04:56:05.868Z,24.77
2023-02-11T04:58:33.604Z,23.02
2023-02-11T05:01:08.366Z,25.35
2023-02-11T05:03:36.608Z,24.20
2023-02-11T05:06:05.010Z,25.38
2023-02-11T05:08:32.636Z,26.10
2023-02-11T05:11:00.179Z,27.77
2023-02-11T05:13:27.748Z,25.10
2023-02-11T05:15:55.183Z,23.80
2023-02-11T05:18:23.027Z,23.60
2023-02-11T05:20:50.755Z,21.97
2023-02-11T05:23:18.299Z,22.02
2023-02-11T05:25:45.891Z,22.48
2023-02-11T05:28:13.396Z,23.20
2023-02-11T05:30:41.217Z,21.10
2023-02-11T05:33:08.757Z,24.77
2023-02-11T05:35:36.304Z,26.67
2023-02-11T05:38:04.023Z,24.20
2023-02-11T05:40:31.715Z,26.63
2023-02-11T05:42:59.203Z,30.33
2023-02-11T05:45:26.642Z,28.07
2023-02-11T05:47:54.207Z,21.13
2023-02-11T05:50:21.829Z,28.38
2023-02-11T05:52:49.415Z,24.83
2023-02-11T05:55:17.211Z,28.05
2023-02-11T05:57:44.907Z,30.97
2023-02-11T06:00:13.503Z,26.60
2023-02-11T06:02:41.371Z,27.08
2023-02-11T06:05:09.154Z,29.58
2023-02-11T06:07:36.769Z,28.45
2023-02-11T06:10:04.585Z,30.50
2023-02-11T06:12:32.135Z,28.83
2023-02-11T06:14:59.579Z,24.08
2023-02-11T06:17:27.229Z,29.42
2023-02-11T06:19:54.778Z,40.67
2023-02-11T06:22:22.583Z,29.80
2023-02-11T06:25:00.736Z,27.25
2023-02-11T06:27:29.683Z,25.20
2023-02-11T06:29:57.249Z,31.55
2023-02-11T06:32:42.940Z,23.88
2023-02-11T06:35:12.433Z,26.83
2023-02-11T06:37:41.266Z,27.33
2023-02-11T06:40:09.159Z,25.77
2023-02-11T06:42:39.205Z,31.38
2023-02-11T06:45:09.381Z,28.25
2023-02-11T06:47:37.781Z,29.43
2023-02-11T06:50:06.053Z,29.58
2023-02-11T06:52:33.347Z,30.88
2023-02-11T06:55:00.976Z,28.25
2023-02-11T06:57:28.680Z,32.92
2023-02-11T06:59:56.355Z,32.43
2023-02-11T07:02:24.376Z,28.55
2023-02-11T07:04:52.082Z,29.08
2023-02-11T07:07:19.793Z,29.95
2023-02-11T07:09:47.685Z,32.35
2023-02-11T07:12:15.360Z,31.37
2023-02-11T07:14:43.087Z,32.25
2023-02-11T07:17:10.691Z,33.50
2023-02-11T07:19:38.794Z,29.92
2023-02-11T07:22:06.289Z,26.75
2023-02-11T07:24:33.796Z,28.57
2023-02-11T07:27:01.553Z,30.40
2023-02-11T07:29:29.490Z,30.70
2023-02-11T07:31:57.191Z,28.15
2023-02-11T07:34:25.164Z,23.65
2023-02-11T07:36:52.800Z,33.77
2023-02-11T07:39:21.980Z,29.15
2023-02-11T07:41:49.697Z,30.08
2023-02-11T07:44:17.556Z,26.83
2023-02-11T07:46:45.854Z,26.52
2023-02-11T07:49:13.296Z,23.93
2023-02-11T07:51:40.805Z,24.90
2023-02-11T07:54:08.568Z,22.88
2023-02-11T07:56:36.113Z,27.90
2023-02-11T07:59:04.582Z,26.08
2023-02-11T08:01:32.114Z,26.63
2023-02-11T08:04:00.817Z,27.85
2023-02-11T08:06:31.580Z,29.00
2023-02-11T08:08:59.658Z,29.15
2023-02-11T08:11:29.008Z,29.42
2023-02-11T08:13:56.947Z,26.70
2023-02-11T08:16:30.102Z,24.70
2023-02-11T08:18:59.669Z,27.17
2023-02-11T08:21:28.123Z,25.55
2023-02-11T08:23:56.120Z,28.55
2023-02-11T08:26:26.811Z,29.30
2023-02-11T08:28:56.401Z,27.75
2023-02-11T08:31:38.929Z,27.58
2023-02-11T08:34:06.911Z,27.02
2023-02-11T08:36:37.820Z,26.40
2023-02-11T08:39:18.483Z,29.67
2023-02-11T08:41:49.324Z,32.40
2023-02-11T08:44:18.417Z,28.40
2023-02-11T08:46:46.130Z,27.63
2023-02-11T08:49:14.684Z,26.13
2023-02-11T08:51:42.683Z,27.83
2023-02-11T08:54:10.690Z,27.02
2023-02-11T08:56:39.033Z,29.33
2023-02-11T08:59:07.514Z,30.13
2023-02-11T09:01:35.117Z,31.23
2023-02-11T09:04:03.029Z,31.43
2023-02-11T09:06:31.029Z,35.15
2023-02-11T09:08:58.430Z,35.08
2023-02-11T09:11:29.476Z,31.55
2023-02-11T09:13:56.953Z,31.90
2023-02-11T09:16:27.273Z,32.23
2023-02-11T09:18:54.908Z,34.22
2023-02-11T09:21:22.352Z,31.65
2023-02-11T09:23:50.717Z,33.58
2023-02-11T09:26:20.607Z,31.38
2023-02-11T09:28:48.998Z,28.53
2023-02-11T09:31:20.071Z,30.17
2023-02-11T09:33:50.616Z,35.08
2023-02-11T09:36:21.619Z,30.92
2023-02-11T09:38:49.619Z,37.03
2023-02-11T09:41:44.623Z,36.67
2023-02-11T09:44:28.626Z,41.50
2023-02-11T09:47:02.044Z,35.33
2023-02-11T09:50:00.842Z,32.08
2023-02-11T09:52:37.068Z,34.20
2023-02-11T09:55:29.633Z,33.53
2023-02-11T09:57:58.096Z,33.50
2023-02-11T10:00:34.317Z,31.77
2023-02-11T10:03:12.499Z,32.67
2023-02-11T10:05:55.386Z,28.45
2023-02-11T10:08:51.992Z,35.20
2023-02-11T10:11:31.685Z,32.28
2023-02-11T10:14:04.318Z,33.63
2023-02-11T10:16:59.394Z,31.95
2023-02-11T10:19:42.179Z,32.63
2023-02-11T10:22:19.095Z,34.53
2023-02-11T10:24:55.316Z,33.88
2023-02-11T10:27:28.883Z,35.10
2023-02-11T10:30:03.184Z,44.38
2023-02-11T10:32:45.771Z,33.33
2023-02-11T10:35:18.792Z,33.17
2023-02-11T10:37:46.765Z,35.13
2023-02-11T10:40:16.660Z,38.03
2023-02-11T10:42:48.662Z,35.83
2023-02-11T10:45:47.430Z,33.50
2023-02-11T10:48:38.422Z,31.27
2023-02-11T10:51:17.118Z,35.45
2023-02-11T10:53:46.420Z,32.88
2023-02-11T10:56:27.689Z,31.80
2023-02-11T10:59:00.128Z,36.15
2023-02-11T11:01:42.143Z,42.90
2023-02-11T11:04:34.140Z,35.65
2023-02-11T11:07:34.107Z,34.60
2023-02-11T11:10:08.610Z,34.10
2023-02-11T11:12:40.359Z,37.33
2023-02-11T11:15:11.404Z,29.53
2023-02-11T11:17:39.203Z,38.95
2023-02-11T11:20:19.553Z,30.33
2023-02-11T11:22:48.442Z,27.05
2023-02-11T11:25:27.842Z,31.63
2023-02-11T11:27:57.913Z,27.47
2023-02-11T11:30:32.337Z,27.83
2023-02-11T11:33:00.445Z,29.17
2023-02-11T11:35:29.446Z,30.98
2023-02-11T11:38:04.130Z,29.75
2023-02-11T11:40:33.447Z,30.07
2023-02-11T11:43:13.453Z,33.30
2023-02-11T11:45:57.129Z,34.15
2023-02-11T11:48:40.185Z,33.63
2023-02-11T11:51:11.273Z,28.92
2023-02-11T11:53:43.371Z,29.70
2023-02-11T11:56:20.517Z,27.52
2023-02-11T11:58:48.802Z,27.83
2023-02-11T12:01:19.216Z,26.88
2023-02-11T12:04:11.681Z,27.33
2023-02-11T12:07:05.500Z,27.43
2023-02-11T12:09:45.140Z,30.50
2023-02-11T12:12:37.465Z,28.10
2023-02-11T12:15:45.141Z,29.58
2023-02-11T12:18:17.141Z,31.77
2023-02-11T12:21:00.003Z,23.47
2023-02-11T12:23:38.153Z,29.48
2023-02-11T12:26:24.493Z,27.80
2023-02-11T12:29:16.719Z,27.50
2023-02-11T12:32:00.271Z,24.90
2023-02-11T12:34:47.479Z,28.93
2023-02-11T12:37:15.152Z,27.77
2023-02-11T12:40:10.406Z,26.52
2023-02-11T12:43:07.916Z,27.83
2023-02-11T12:45:58.203Z,26.42
2023-02-11T12:48:35.402Z,20.47
2023-02-11T12:51:16.491Z,21.65
2023-02-11T12:53:47.424Z,26.77
2023-02-11T12:56:28.827Z,22.63
2023-02-11T12:58:58.166Z,18.15
2023-02-11T13:01:32.839Z,17.17
2023-02-11T13:04:29.503Z,21.05
2023-02-11T13:07:02.514Z,19.80
2023-02-11T13:09:35.088Z,18.13
2023-02-11T13:12:24.178Z,17.67
2023-02-11T13:14:53.877Z,19.97
2023-02-11T13:17:28.182Z,19.17
2023-02-11T13:20:01.559Z,21.48
2023-02-11T13:22:35.842Z,22.73
2023-02-11T13:25:33.049Z,21.52
2023-02-11T13:28:18.579Z,22.20
2023-02-11T13:30:57.687Z,22.92
2023-02-11T13:33:34.073Z,20.75
2023-02-11T13:36:04.356Z,19.35
2023-02-11T13:38:32.354Z,17.30
2023-02-11T13:41:07.017Z,21.90
2023-02-11T13:43:36.383Z,21.30
2023-02-11T13:46:11.958Z,18.70
2023-02-11T13:48:47.197Z,16.13
2023-02-11T13:51:17.776Z,18.73
2023-02-11T13:53:47.934Z,20.77
2023-02-11T13:56:32.366Z,21.50
2023-02-11T13:59:02.408Z,21.17
2023-02-11T14:02:23.566Z,18.55
2023-02-11T14:05:24.484Z,19.02
2023-02-11T14:08:28.796Z,21.40
2023-02-11T14:11:01.496Z,18.45
2023-02-11T14:13:33.549Z,22.17
2023-02-11T14:16:16.978Z,21.13
2023-02-11T14:18:44.935Z,20.20
2023-02-11T14:21:22.092Z,25.17
2023-02-11T14:23:52.866Z,22.15
2023-02-11T14:26:20.490Z,22.20
2023-02-11T14:29:07.683Z,23.77
2023-02-11T14:31:35.321Z,23.80
2023-02-11T14:34:15.225Z,21.73
2023-02-11T14:36:57.225Z,26.52
2023-02-11T14:39:33.229Z,25.30
2023-02-11T14:42:02.002Z,22.58
2023-02-11T14:44:31.896Z,25.08
2023-02-11T14:47:00.157Z,23.63
2023-02-11T14:49:38.334Z,26.02
2023-02-11T14:52:31.453Z,24.77
2023-02-11T14:55:13.600Z,20.73
2023-02-11T14:57:42.579Z,26.75
2023-02-11T15:00:28.599Z,27.77
2023-02-11T15:02:56.602Z,23.00
2023-02-11T15:05:29.187Z,24.75
2023-02-11T15:08:00.260Z,26.02
2023-02-11T15:10:38.742Z,27.58
2023-02-11T15:13:06.426Z,24.07
2023-02-11T15:15:36.293Z,29.17
2023-02-11T15:18:05.003Z,27.17
2023-02-11T15:20:33.979Z,31.40
2023-02-11T15:23:08.898Z,27.75
2023-02-11T15:25:44.209Z,25.80
2023-02-11T15:28:22.063Z,25.00
2023-02-11T15:31:06.710Z,25.77
2023-02-11T15:33:34.261Z,25.92
2023-02-11T15:36:05.443Z,27.55
2023-02-11T15:38:34.260Z,24.20
2023-02-11T15:41:03.615Z,24.75
2023-02-11T15:43:48.267Z,32.97
2023-02-11T15:46:21.427Z,29.38
2023-02-11T15:48:55.979Z,28.35
2023-02-11T15:51:25.480Z,25.77
2023-02-11T15:53:57.152Z,29.42
2023-02-11T15:56:37.981Z,27.50
2023-02-11T15:59:24.274Z,26.85
2023-02-11T16:01:52.973Z,28.83
2023-02-11T16:04:23.710Z,27.10
2023-02-11T16:06:52.002Z,27.17
2023-02-11T16:09:19.984Z,22.85
2023-02-11T16:11:48.036Z,27.88
2023-02-11T16:14:23.861Z,24.92
2023-02-11T16:16:54.297Z,27.13
2023-02-11T16:19:25.374Z,30.85
2023-02-11T16:21:54.287Z,30.95
2023-02-11T16:24:28.268Z,30.08
2023-02-11T16:26:58.640Z,29.75
2023-02-11T16:29:29.991Z,27.50
2023-02-11T16:32:16.992Z,31.02
2023-02-11T16:34:45.092Z,27.77
2023-02-11T16:37:12.994Z,27.80
2023-02-11T16:39:41.084Z,31.40
2023-02-11T16:42:13.141Z,27.57
2023-02-11T16:44:40.485Z,27.77
2023-02-11T16:47:11.177Z,28.58
2023-02-11T16:49:42.494Z,30.77
2023-02-11T16:52:14.867Z,30.92
2023-02-11T16:54:43.007Z,26.07
2023-02-11T16:57:30.473Z,27.85
2023-02-11T16:59:59.470Z,31.50
2023-02-11T17:02:29.310Z,26.02
2023-02-11T17:05:00.117Z,25.00
2023-02-11T17:07:28.045Z,29.10
2023-02-11T17:09:55.897Z,25.90
2023-02-11T17:12:26.879Z,24.90
2023-02-11T17:14:54.885Z,27.08
2023-02-11T17:17:24.072Z,27.92
2023-02-11T17:19:52.107Z,26.93
2023-02-11T17:22:20.007Z,29.55
2023-02-11T17:24:47.672Z,28.27
2023-02-11T17:27:15.675Z,34.97
2023-02-11T17:29:43.889Z,27.90
2023-02-11T17:32:13.091Z,35.47
2023-02-11T17:34:41.681Z,28.00
2023-02-11T17:37:11.805Z,30.90
2023-02-11T17:39:40.078Z,31.25
2023-02-11T17:42:08.865Z,27.38
2023-02-11T17:44:36.896Z,25.10
2023-02-11T17:47:04.765Z,25.35
2023-02-11T17:49:32.337Z,32.90
2023-02-11T17:52:00.127Z,28.60
2023-02-11T17:54:27.998Z,24.35
2023-02-11T17:56:58.216Z,35.37
2023-02-11T17:59:26.540Z,33.63
2023-02-11T18:01:54.140Z,32.97
2023-02-11T18:04:22.129Z,32.25
2023-02-11T18:06:50.702Z,31.65
2023-02-11T18:09:18.345Z,29.70
2023-02-11T18:11:46.912Z,27.13
2023-02-11T18:14:14.914Z,28.63
2023-02-11T18:16:45.074Z,32.95
2023-02-11T18:19:13.150Z,27.40
2023-02-11T18:21:40.918Z,30.60
2023-02-11T18:24:08.795Z,26.48
2023-02-11T18:26:36.920Z,32.05
2023-02-11T18:29:06.537Z,30.80
2023-02-11T18:31:35.704Z,27.15
2023-02-11T18:34:07.684Z,26.77
2023-02-11T18:36:36.573Z,32.28
2023-02-11T18:39:05.203Z,29.20
2023-02-11T18:41:32.709Z,26.65
2023-02-11T18:44:03.176Z,24.77
2023-02-11T18:46:31.473Z,28.30
2023-02-11T18:49:00.752Z,27.05
2023-02-11T18:51:28.908Z,31.42
2023-02-11T18:53:56.182Z,27.38
2023-02-11T18:56:27.948Z,25.98
2023-02-11T18:58:57.047Z,24.37
2023-02-11T19:01:27.364Z,28.02
2023-02-11T19:03:57.500Z,33.75
2023-02-11T19:06:28.147Z,32.65
2023-02-11T19:08:59.715Z,30.67
2023-02-11T19:11:50.399Z,29.07
2023-02-11T19:14:31.594Z,26.85
2023-02-11T19:17:01.169Z,30.30
2023-02-11T19:19:31.135Z,25.77
2023-02-11T19:22:00.083Z,25.42
2023-02-11T19:24:29.011Z,28.47
2023-02-11T19:26:59.393Z,26.23
2023-02-11T19:29:27.959Z,26.85
2023-02-11T19:31:56.140Z,24.83
2023-02-11T19:34:23.766Z,25.23
2023-02-11T19:36:51.565Z,23.67
2023-02-11T19:39:19.401Z,26.67
2023-02-11T19:41:47.060Z,25.45
2023-02-11T19:44:15.063Z,25.27
2023-02-11T19:46:42.934Z,22.30
2023-02-11T19:49:12.397Z,25.27
2023-02-11T19:51:40.064Z,25.67
2023-02-11T19:54:08.150Z,26.20
2023-02-11T19:56:38.063Z,26.80
2023-02-11T19:59:09.113Z,23.73
2023-02-11T20:01:37.249Z,24.97
2023-02-11T20:04:04.979Z,26.50
2023-02-11T20:06:33.625Z,24.00
2023-02-11T20:09:04.073Z,27.25
2023-02-11T20:11:32.976Z,25.98
2023-02-11T20:14:01.076Z,26.73
2023-02-11T20:16:46.214Z,22.48
2023-02-11T20:19:18.798Z,29.65
2023-02-11T20:21:48.278Z,25.25
2023-02-11T20:24:19.148Z,26.70
2023-02-11T20:26:48.342Z,24.90
2023-02-11T20:29:17.450Z,21.77
2023-02-11T20:31:45.610Z,23.98
2023-02-11T20:34:13.656Z,26.27
2023-02-11T20:36:41.311Z,29.00
2023-02-11T20:39:11.188Z,21.27
2023-02-11T20:41:40.225Z,26.38
2023-02-11T20:44:10.644Z,25.35
2023-02-11T20:46:40.559Z,23.48
2023-02-11T20:49:17.316Z,23.55
2023-02-11T20:51:45.652Z,24.27
2023-02-11T20:54:15.431Z,21.80
2023-02-11T20:56:44.064Z,23.35
2023-02-11T20:59:14.062Z,22.85
2023-02-11T21:01:44.044Z,23.27
2023-02-11T21:04:25.666Z,21.60
2023-02-11T21:06:56.235Z,23.52
2023-02-11T21:09:27.830Z,23.00
2023-02-11T21:11:56.087Z,23.23
2023-02-11T21:14:25.141Z,23.42
2023-02-11T21:16:53.019Z,18.13
2023-02-11T21:19:21.518Z,22.33
2023-02-11T21:21:49.941Z,22.20
2023-02-11T21:24:17.834Z,25.05
2023-02-11T21:26:45.537Z,16.92
2023-02-11T21:29:13.455Z,20.77
2023-02-11T21:31:41.180Z,21.00
2023-02-11T21:34:08.690Z,23.90
2023-02-11T21:36:37.045Z,20.38
2023-02-11T21:39:05.904Z,19.15
2023-02-11T21:41:33.702Z,20.77
2023-02-11T21:44:01.696Z,19.50
2023-02-11T21:46:29.605Z,19.67
2023-02-11T21:48:58.042Z,18.38
2023-02-11T21:51:26.416Z,18.08
2023-02-11T21:53:58.939Z,20.83
2023-02-11T21:56:29.868Z,19.95
2023-02-11T21:58:58.220Z,16.30
2023-02-11T22:01:31.032Z,22.23
2023-02-11T22:03:59.490Z,25.75
2023-02-11T22:06:31.117Z,20.43
2023-02-11T22:08:59.871Z,21.35
2023-02-11T22:11:27.273Z,18.60
2023-02-11T22:13:56.583Z,21.15
2023-02-11T22:16:24.363Z,18.58
2023-02-11T22:18:52.283Z,19.20
2023-02-11T22:21:22.175Z,18.40
2023-02-11T22:23:50.515Z,19.27
2023-02-11T22:26:20.818Z,17.55
2023-02-11T22:28:48.883Z,20.83
2023-02-11T22:31:20.376Z,18.80
2023-02-11T22:33:48.077Z,21.95
2023-02-11T22:36:23.168Z,21.10
2023-02-11T22:38:51.129Z,19.35
2023-02-11T22:41:18.885Z,21.48
2023-02-11T22:43:46.901Z,21.03
2023-02-11T22:46:17.414Z,19.67
2023-02-11T22:48:45.290Z,17.42
2023-02-11T22:51:20.885Z,18.48
2023-02-11T22:53:56.889Z,17.05
2023-02-11T22:56:25.307Z,19.53
2023-02-11T22:58:54.007Z,19.42
2023-02-11T23:01:21.327Z,18.65
2023-02-11T23:03:49.103Z,19.23
2023-02-11T23:06:17.132Z,17.55
2023-02-11T23:08:45.148Z,19.93
2023-02-11T23:11:15.903Z,19.73
2023-02-11T23:13:45.131Z,21.42
2023-02-11T23:16:16.142Z,17.67
2023-02-11T23:18:44.910Z,20.42
2023-02-11T23:21:32.917Z,21.50
2023-02-11T23:24:06.323Z,18.50
2023-02-11T23:26:34.097Z,19.02
2023-02-11T23:29:01.778Z,17.17
2023-02-11T23:31:37.739Z,18.45
2023-02-11T23:34:09.042Z,19.37
2023-02-11T23:36:37.075Z,20.58
2023-02-11T23:39:05.124Z,18.42
2023-02-11T23:41:32.545Z,19.08
2023-02-11T23:44:00.348Z,17.30
2023-02-11T23:46:28.191Z,19.93
2023-02-11T23:48:55.936Z,16.98
2023-02-11T23:51:23.936Z,17.95
2023-02-11T23:53:52.936Z,21.40
2023-02-11T23:56:22.935Z,18.23
2023-02-11T23:58:52.152Z,19.57
